createdAt,value
2022-09-02T00:00:54.177Z,97630.97
2022-09-02T00:03:21.131Z,97636.13
2022-09-02T00:05:48.095Z,97629.25
2022-09-02T00:08:14.690Z,97630.16
2022-09-02T00:10:42.493Z,97625.88
2022-09-02T00:13:10.688Z,97625.00
2022-09-02T00:15:37.229Z,97615.56
2022-09-02T00:18:03.919Z,97625.84
2022-09-02T00:20:30.563Z,97617.25
2022-09-02T00:22:57.171Z,97610.34
2022-09-02T00:25:23.737Z,97609.41
2022-09-02T00:27:50.428Z,97614.69
2022-09-02T00:30:17.041Z,97608.59
2022-09-02T00:32:43.611Z,97607.84
2022-09-02T00:35:10.432Z,97613.81
2022-09-02T00:37:37.568Z,97612.09
2022-09-02T00:40:05.217Z,97606.09
2022-09-02T00:42:32.921Z,97606.97
2022-09-02T00:44:59.473Z,97603.50
2022-09-02T00:47:26.044Z,97608.63
2022-09-02T00:49:55.696Z,97600.94
2022-09-02T00:52:39.417Z,97602.66
2022-09-02T00:55:17.145Z,97604.41
2022-09-02T00:57:48.704Z,97583.59
2022-09-02T01:00:20.388Z,97603.50
2022-09-02T01:02:49.347Z,97590.56
2022-09-02T01:05:17.304Z,97593.06
2022-09-02T01:07:44.873Z,97601.81
2022-09-02T01:10:17.215Z,97597.53
2022-09-02T01:12:43.826Z,97606.97
2022-09-02T01:15:11.311Z,97600.94
2022-09-02T01:17:40.644Z,97598.38
2022-09-02T01:20:11.856Z,97598.38
2022-09-02T01:22:39.132Z,97605.25
2022-09-02T01:25:12.232Z,97602.66
2022-09-02T01:27:38.772Z,97600.09
2022-09-02T01:30:06.235Z,97591.44
2022-09-02T01:32:32.815Z,97588.06
2022-09-02T01:34:59.453Z,97594.97
2022-09-02T01:37:26.031Z,97596.66
2022-09-02T01:39:52.870Z,97595.78
2022-09-02T01:42:20.296Z,97593.22
2022-09-02T01:44:46.847Z,97588.94
2022-09-02T01:47:14.115Z,97588.91
2022-09-02T01:49:40.912Z,97588.03
2022-09-02T01:52:07.669Z,97585.50
2022-09-02T01:54:34.517Z,97575.97
2022-09-02T01:57:01.345Z,97579.50
2022-09-02T01:59:27.903Z,97585.50
2022-09-02T02:01:54.491Z,97584.69
2022-09-02T02:04:22.815Z,97585.50
2022-09-02T02:06:52.475Z,97579.50
2022-09-02T02:09:20.104Z,97576.91
2022-09-02T02:11:47.517Z,97582.91
2022-09-02T02:14:14.072Z,97577.78
2022-09-02T02:16:40.655Z,97570.94
2022-09-02T02:19:07.290Z,97570.06
2022-09-02T02:21:33.892Z,97574.38
2022-09-02T02:24:03.019Z,97573.50
2022-09-02T02:26:29.798Z,97564.94
2022-09-02T02:28:56.621Z,97547.66
2022-09-02T02:31:25.095Z,97559.78
2022-09-02T02:33:51.671Z,97565.81
2022-09-02T02:36:18.899Z,97562.34
2022-09-02T02:38:46.712Z,97564.94
2022-09-02T02:41:14.152Z,97558.88
2022-09-02T02:43:40.828Z,97563.09
2022-09-02T02:46:07.647Z,97562.31
2022-09-02T02:48:35.020Z,97551.09
2022-09-02T02:51:01.764Z,97559.75
2022-09-02T02:53:29.709Z,97565.75
2022-09-02T02:55:56.278Z,97569.19
2022-09-02T02:58:22.845Z,97564.06
2022-09-02T03:00:49.521Z,97545.03
2022-09-02T03:03:19.589Z,97548.53
2022-09-02T03:05:47.570Z,97552.91
2022-09-02T03:08:14.156Z,97563.19
2022-09-02T03:10:41.899Z,97557.19
2022-09-02T03:13:09.847Z,97552.91
2022-09-02T03:15:37.575Z,97553.78
2022-09-02T03:18:04.217Z,97552.03
2022-09-02T03:20:31.208Z,97551.19
2022-09-02T03:22:59.069Z,97550.34
2022-09-02T03:25:26.905Z,97549.47
2022-09-02T03:27:54.055Z,97544.34
2022-09-02T03:30:23.312Z,97545.22
2022-09-02T03:32:50.814Z,97541.75
2022-09-02T03:35:18.815Z,97538.34
2022-09-02T03:37:45.650Z,97544.34
2022-09-02T03:40:14.330Z,97541.75
2022-09-02T03:42:40.909Z,97538.34
2022-09-02T03:45:10.212Z,97534.91
2022-09-02T03:47:36.793Z,97539.19
2022-09-02T03:50:03.982Z,97534.03
2022-09-02T03:52:30.508Z,97534.88
2022-09-02T03:54:57.318Z,97527.16
2022-09-02T03:57:25.847Z,97539.16
2022-09-02T03:59:52.464Z,97534.03
2022-09-02T04:02:19.144Z,97540.00
2022-09-02T04:04:45.778Z,97533.19
2022-09-02T04:07:12.338Z,97533.19
2022-09-02T04:09:40.016Z,97533.19
2022-09-02T04:12:09.056Z,97528.88
2022-09-02T04:14:35.581Z,97533.19
2022-09-02T04:17:02.139Z,97528.03
2022-09-02T04:19:28.695Z,97531.47
2022-09-02T04:21:55.249Z,97528.03
2022-09-02T04:24:21.831Z,97537.44
2022-09-02T04:26:48.371Z,97538.31
2022-09-02T04:29:14.906Z,97529.75
2022-09-02T04:31:43.157Z,97534.03
2022-09-02T04:34:09.788Z,97534.03
2022-09-02T04:36:36.299Z,97538.31
2022-09-02T04:39:02.847Z,97536.59
2022-09-02T04:41:30.318Z,97545.19
2022-09-02T04:43:57.891Z,97546.84
2022-09-02T04:46:34.370Z,97539.16
2022-09-02T04:49:01.347Z,97536.59
2022-09-02T04:51:27.947Z,97542.59
2022-09-02T04:53:54.694Z,97542.59
2022-09-02T04:56:23.590Z,97545.16
2022-09-02T04:58:51.662Z,97548.59
2022-09-02T05:01:21.118Z,97551.16
2022-09-02T05:03:47.937Z,97552.03
2022-09-02T05:06:16.556Z,97549.44
2022-09-02T05:08:43.627Z,97548.63
2022-09-02T05:11:13.474Z,97543.47
2022-09-02T05:13:40.830Z,97551.19
2022-09-02T05:16:07.549Z,97549.44
2022-09-02T05:18:34.229Z,97553.75
2022-09-02T05:21:04.145Z,97546.00
2022-09-02T05:23:30.728Z,97544.28
2022-09-02T05:25:57.248Z,97548.56
2022-09-02T05:28:23.797Z,97551.97
2022-09-02T05:30:50.443Z,97552.81
2022-09-02T05:33:17.136Z,97551.09
2022-09-02T05:35:45.570Z,97557.94
2022-09-02T05:38:12.873Z,97552.75
2022-09-02T05:40:39.510Z,97555.34
2022-09-02T05:43:06.581Z,97561.31
2022-09-02T05:45:34.310Z,97560.44
2022-09-02T05:48:20.796Z,97556.16
2022-09-02T05:50:47.674Z,97556.97
2022-09-02T05:53:26.772Z,97547.56
2022-09-02T05:55:53.529Z,97545.84
2022-09-02T05:58:20.078Z,97551.84
2022-09-02T06:00:46.633Z,97550.13
2022-09-02T06:03:13.673Z,97551.84
2022-09-02T06:05:42.506Z,97557.81
2022-09-02T06:08:09.141Z,97548.38
2022-09-02T06:10:41.196Z,97552.69
2022-09-02T06:13:08.142Z,97553.53
2022-09-02T06:15:34.714Z,97544.09
2022-09-02T06:18:01.366Z,97550.13
2022-09-02T06:20:29.152Z,97548.44
2022-09-02T06:22:55.720Z,97553.56
2022-09-02T06:25:22.300Z,97548.44
2022-09-02T06:27:48.830Z,97545.00
2022-09-02T06:30:15.373Z,97470.50
2022-09-02T06:32:41.947Z,97550.16
2022-09-02T06:35:09.653Z,97547.56
2022-09-02T06:37:36.200Z,97539.88
2022-09-02T06:40:03.268Z,97546.69
2022-09-02T06:42:29.784Z,97537.28
2022-09-02T06:44:56.414Z,97536.41
2022-09-02T06:47:22.952Z,97539.88
2022-09-02T06:49:49.757Z,97533.03
2022-09-02T06:52:16.291Z,97542.47
2022-09-02T06:54:42.867Z,97539.00
2022-09-02T06:57:09.405Z,97542.47
2022-09-02T06:59:36.465Z,97541.59
2022-09-02T07:02:04.078Z,97540.78
2022-09-02T07:04:49.894Z,97529.63
2022-09-02T07:07:17.724Z,97533.91
2022-09-02T07:09:44.530Z,97537.38
2022-09-02T07:12:11.303Z,97549.31
2022-09-02T07:14:39.225Z,97543.34
2022-09-02T07:17:05.927Z,97548.50
2022-09-02T07:19:32.528Z,97542.50
2022-09-02T07:21:59.069Z,97537.38
2022-09-02T07:24:25.658Z,97535.69
2022-09-02T07:26:55.605Z,97539.94
2022-09-02T07:29:22.713Z,97545.09
2022-09-02T07:31:49.316Z,97544.19
2022-09-02T07:34:16.390Z,97545.97
2022-09-02T07:36:43.271Z,97551.91
2022-09-02T07:39:10.379Z,97542.47
2022-09-02T07:41:39.496Z,97550.19
2022-09-02T07:44:06.173Z,97550.19
2022-09-02T07:46:32.935Z,97560.47
2022-09-02T07:49:00.280Z,97559.63
2022-09-02T07:51:27.556Z,97242.03
2022-09-02T07:53:57.661Z,97547.63
2022-09-02T07:56:24.229Z,97545.09
2022-09-02T07:58:50.817Z,97548.53
2022-09-02T08:01:22.676Z,97548.53
2022-09-02T08:03:49.968Z,97216.41
2022-09-02T08:06:16.804Z,97550.25
2022-09-02T08:08:48.576Z,97539.97
2022-09-02T08:11:15.122Z,97545.09
2022-09-02T08:13:41.817Z,97543.41
2022-09-02T08:16:08.520Z,97539.09
2022-09-02T08:18:36.005Z,97557.97
2022-09-02T08:21:02.611Z,97535.69
2022-09-02T08:23:37.525Z,97541.66
2022-09-02T08:26:05.503Z,97538.25
2022-09-02T08:28:32.258Z,97534.78
2022-09-02T08:30:59.205Z,97536.53
2022-09-02T08:33:25.891Z,97533.91
2022-09-02T08:35:52.439Z,97530.53
2022-09-02T08:38:19.115Z,97527.09
2022-09-02T08:40:45.990Z,97537.38
2022-09-02T08:43:37.354Z,97525.38
2022-09-02T08:46:05.357Z,97528.81
2022-09-02T08:48:48.996Z,97521.09
2022-09-02T08:51:19.053Z,97524.50
2022-09-02T08:54:04.817Z,97528.81
2022-09-02T08:56:32.262Z,97527.13
2022-09-02T08:59:03.067Z,97515.94
2022-09-02T09:01:35.135Z,97511.69
2022-09-02T09:04:39.035Z,97510.81
2022-09-02T09:07:23.845Z,97509.13
2022-09-02T09:10:29.658Z,97445.13
2022-09-02T09:12:59.207Z,97507.41
2022-09-02T09:15:49.414Z,97510.78
2022-09-02T09:18:21.062Z,97504.81
2022-09-02T09:20:48.566Z,97484.13
2022-09-02T09:23:28.984Z,97499.69
2022-09-02T09:26:14.141Z,97500.50
2022-09-02T09:28:44.910Z,97499.69
2022-09-02T09:31:15.010Z,97489.41
2022-09-02T09:33:58.250Z,97491.97
2022-09-02T09:36:45.987Z,97481.66
2022-09-02T09:39:31.620Z,97491.94
2022-09-02T09:42:03.256Z,97480.78
2022-09-02T09:44:44.618Z,97484.25
2022-09-02T09:47:18.165Z,97479.09
2022-09-02T09:49:48.723Z,97481.66
2022-09-02T09:52:25.044Z,97482.50
2022-09-02T09:55:24.758Z,97473.97
2022-09-02T09:57:53.236Z,97471.41
2022-09-02T10:00:21.514Z,97473.13
2022-09-02T10:02:52.420Z,97467.97
2022-09-02T10:05:25.741Z,97466.28
2022-09-02T10:08:04.512Z,97468.84
2022-09-02T10:10:39.690Z,97468.84
2022-09-02T10:13:23.669Z,97464.53
2022-09-02T10:15:55.122Z,97475.69
2022-09-02T10:18:34.017Z,97465.41
2022-09-02T10:21:14.941Z,97456.81
2022-09-02T10:24:01.352Z,97455.97
2022-09-02T10:26:38.154Z,97462.84
2022-09-02T10:29:11.839Z,97459.41
2022-09-02T10:31:46.807Z,97460.28
2022-09-02T10:34:16.372Z,97458.56
2022-09-02T10:37:05.037Z,97461.13
2022-09-02T10:39:46.690Z,97460.28
2022-09-02T10:42:31.387Z,97460.28
2022-09-02T10:45:21.696Z,97454.28
2022-09-02T10:48:04.558Z,97448.28
2022-09-02T10:50:39.707Z,97422.31
2022-09-02T10:53:25.246Z,97451.72
2022-09-02T10:56:11.301Z,97449.13
2022-09-02T10:58:39.700Z,97456.00
2022-09-02T11:01:07.565Z,97442.31
2022-09-02T11:03:41.825Z,97439.72
2022-09-02T11:06:21.186Z,97432.00
2022-09-02T11:08:48.701Z,97468.88
2022-09-02T11:11:22.631Z,97432.00
2022-09-02T11:14:23.056Z,97425.88
2022-09-02T11:17:04.630Z,97426.88
2022-09-02T11:19:43.820Z,97420.88
2022-09-02T11:22:25.334Z,97422.59
2022-09-02T11:25:20.037Z,97426.88
2022-09-02T11:28:02.031Z,97421.75
2022-09-02T11:30:47.353Z,97421.75
2022-09-02T11:33:21.440Z,97420.88
2022-09-02T11:35:48.227Z,97411.44
2022-09-02T11:38:15.154Z,97416.59
2022-09-02T11:41:35.988Z,97409.75
2022-09-02T11:44:15.736Z,97406.31
2022-09-02T11:47:00.957Z,97407.19
2022-09-02T11:49:42.679Z,97409.75
2022-09-02T11:55:24.928Z,97404.59
2022-09-02T11:57:57.520Z,97414.00
2022-09-02T12:00:27.612Z,97400.28
2022-09-02T12:03:16.726Z,97396.03
2022-09-02T12:05:51.427Z,97396.00
2022-09-02T12:08:34.961Z,97389.16
2022-09-02T12:11:02.154Z,97393.44
2022-09-02T12:13:42.061Z,97390.00
2022-09-02T12:16:32.887Z,97386.56
2022-09-02T12:19:07.309Z,97384.81
2022-09-02T12:21:35.447Z,97371.81
2022-09-02T12:24:05.356Z,97372.72
2022-09-02T12:26:41.152Z,97386.56
2022-09-02T12:29:19.731Z,97389.94
2022-09-02T12:31:48.554Z,97393.41
2022-09-02T12:34:21.053Z,97387.41
2022-09-02T12:37:00.654Z,97384.81
2022-09-02T12:39:30.673Z,97384.81
2022-09-02T12:42:12.679Z,97382.22
2022-09-02T12:44:57.951Z,97377.09
2022-09-02T12:47:41.475Z,97382.22
2022-09-02T12:50:19.797Z,97382.22
2022-09-02T12:52:51.696Z,97371.94
2022-09-02T12:55:23.861Z,97365.97
2022-09-02T12:57:52.093Z,97358.25
2022-09-02T13:00:40.066Z,97340.97
2022-09-02T13:03:29.902Z,97366.81
2022-09-02T13:06:05.617Z,97365.13
2022-09-02T13:09:05.777Z,97294.28
2022-09-02T13:12:09.962Z,97355.72
2022-09-02T13:14:52.755Z,97365.13
2022-09-02T13:17:36.721Z,97354.84
2022-09-02T13:20:35.875Z,97348.84
2022-09-02T13:23:20.881Z,97348.84
2022-09-02T13:26:32.892Z,97335.97
2022-09-02T13:29:10.749Z,97346.28
2022-09-02T13:31:37.935Z,97053.56
2022-09-02T13:34:12.029Z,97329.03
2022-09-02T13:36:42.789Z,97355.72
2022-09-02T13:39:26.516Z,97343.69
2022-09-02T13:41:53.296Z,97339.44
2022-09-02T13:44:24.651Z,97339.44
2022-09-02T13:46:54.601Z,97328.28
2022-09-02T13:49:23.315Z,97330.00
2022-09-02T13:51:51.410Z,97315.31
2022-09-02T13:54:33.789Z,97319.63
2022-09-02T13:57:02.070Z,97330.84
2022-09-02T13:59:47.847Z,97334.28
2022-09-02T14:02:20.369Z,97323.13
2022-09-02T14:04:47.508Z,97319.72
2022-09-02T14:07:14.020Z,97260.09
2022-09-02T14:09:40.563Z,97318.88
2022-09-02T14:12:07.219Z,97324.00
2022-09-02T14:14:33.991Z,97318.88
2022-09-02T14:17:23.374Z,97325.72
2022-09-02T14:19:50.420Z,97312.00
2022-09-02T14:22:29.503Z,97312.88
2022-09-02T14:24:56.353Z,97310.31
2022-09-02T14:27:23.407Z,97324.00
2022-09-02T14:29:55.512Z,97313.72
2022-09-02T14:32:28.607Z,97302.59
2022-09-02T14:35:30.844Z,97304.31
2022-09-02T14:37:59.476Z,97286.31
2022-09-02T14:40:48.063Z,97285.44
2022-09-02T14:43:15.444Z,97292.28
2022-09-02T14:45:48.350Z,97268.19
2022-09-02T14:48:25.553Z,97307.72
2022-09-02T14:51:03.103Z,97244.13
2022-09-02T14:53:29.732Z,97212.16
2022-09-02T14:55:56.507Z,97270.00
2022-09-02T14:58:27.175Z,97270.88
2022-09-02T15:00:55.780Z,97274.28
2022-09-02T15:03:23.123Z,97270.88
2022-09-02T15:05:49.771Z,97270.88
2022-09-02T15:08:16.487Z,97264.88
2022-09-02T15:10:43.574Z,97258.00
2022-09-02T15:13:14.940Z,97261.44
2022-09-02T15:15:41.556Z,97254.59
2022-09-02T15:18:09.048Z,97259.72
2022-09-02T15:20:35.917Z,97257.16
2022-09-02T15:23:03.156Z,97258.84
2022-09-02T15:25:29.969Z,97255.44
2022-09-02T15:27:56.553Z,97256.31
2022-09-02T15:30:23.091Z,97254.59
2022-09-02T15:32:50.213Z,97256.31
2022-09-02T15:35:16.809Z,97252.88
2022-09-02T15:37:43.383Z,97252.88
2022-09-02T15:40:10.531Z,97238.31
2022-09-02T15:42:37.553Z,97255.47
2022-09-02T15:45:05.212Z,97258.03
2022-09-02T15:47:34.292Z,97246.88
2022-09-02T15:50:00.881Z,97252.88
2022-09-02T15:52:27.604Z,97246.00
2022-09-02T15:54:55.007Z,97246.88
2022-09-02T15:57:21.863Z,97241.72
2022-09-02T15:59:48.599Z,97234.88
2022-09-02T16:02:15.178Z,97238.28
2022-09-02T16:04:41.827Z,97244.28
2022-09-02T16:07:08.412Z,97225.44
2022-09-02T16:09:35.010Z,97222.03
2022-09-02T16:12:01.679Z,97226.28
2022-09-02T16:14:28.784Z,97226.28
2022-09-02T16:16:55.812Z,97230.56
2022-09-02T16:19:23.036Z,97231.44
2022-09-02T16:21:49.971Z,97223.72
2022-09-02T16:24:18.151Z,97231.44
2022-09-02T16:26:44.699Z,97226.28
2022-09-02T16:29:16.303Z,97228.00
2022-09-02T16:31:44.054Z,97239.16
2022-09-02T16:34:12.695Z,97236.56
2022-09-02T16:36:40.801Z,97224.59
2022-09-02T16:39:07.456Z,97219.44
2022-09-02T16:41:35.776Z,97230.56
2022-09-02T16:44:04.874Z,97223.72
2022-09-02T16:46:31.617Z,97224.59
2022-09-02T16:48:58.261Z,97218.56
2022-09-02T16:51:25.220Z,97220.25
2022-09-02T16:53:55.827Z,97212.53
2022-09-02T16:56:23.686Z,97217.69
2022-09-02T16:58:50.892Z,97223.69
2022-09-02T17:01:17.766Z,97224.56
2022-09-02T17:03:45.392Z,97222.00
2022-09-02T17:06:12.045Z,97217.69
2022-09-02T17:08:38.815Z,97218.56
2022-09-02T17:11:13.524Z,97215.13
2022-09-02T17:13:40.571Z,97218.56
2022-09-02T17:16:07.868Z,97227.13
2022-09-02T17:18:34.821Z,97223.69
2022-09-02T17:21:15.628Z,97225.38
2022-09-02T17:23:42.400Z,97231.41
2022-09-02T17:26:09.324Z,97228.84
2022-09-02T17:28:35.877Z,97222.00
2022-09-02T17:31:05.651Z,97218.56
2022-09-02T17:33:32.362Z,97216.84
2022-09-02T17:36:01.583Z,97226.25
2022-09-02T17:38:28.099Z,97230.53
2022-09-02T17:41:13.091Z,97218.53
2022-09-02T17:43:39.707Z,97219.41
2022-09-02T17:46:07.257Z,97221.97
2022-09-02T17:48:41.828Z,97232.28
2022-09-02T17:51:20.456Z,97231.41
2022-09-02T17:53:46.999Z,97230.53
2022-09-02T17:56:59.820Z,97168.38
2022-09-02T17:59:51.288Z,97235.66
2022-09-02T18:02:35.978Z,97237.41
2022-09-02T18:05:35.047Z,97239.97
2022-09-02T18:08:28.925Z,97239.97
2022-09-02T18:10:58.309Z,97238.22
2022-09-02T18:13:48.287Z,97239.09
2022-09-02T18:16:36.587Z,97237.41
2022-09-02T18:19:06.601Z,97240.81
2022-09-02T18:21:42.355Z,97245.94
2022-09-02T18:24:32.561Z,97239.97
2022-09-02T18:27:09.301Z,97239.09
2022-09-02T18:30:02.437Z,97244.25
2022-09-02T18:32:45.661Z,96912.19
2022-09-02T18:36:02.899Z,97242.56
2022-09-02T18:38:38.879Z,97245.97
2022-09-02T18:41:23.473Z,97249.38
2022-09-02T18:44:09.329Z,97245.13
2022-09-02T18:47:01.806Z,97249.41
2022-09-02T18:49:28.442Z,97248.53
2022-09-02T18:51:57.177Z,97248.56
2022-09-02T18:54:26.808Z,97243.41
2022-09-02T18:56:56.720Z,97252.00
2022-09-02T18:59:35.386Z,97246.00
2022-09-02T19:02:06.491Z,97242.59
2022-09-02T19:04:33.409Z,97246.03
2022-09-02T19:07:18.455Z,97252.88
2022-09-02T19:09:45.069Z,97265.75
2022-09-02T19:12:12.133Z,97271.72
2022-09-02T19:14:40.116Z,97276.88
2022-09-02T19:17:06.922Z,97285.44
2022-09-02T19:19:35.193Z,97267.41
2022-09-02T19:22:05.496Z,97252.75
2022-09-02T19:24:34.835Z,97285.44
2022-09-02T19:27:10.148Z,97269.03
2022-09-02T19:29:39.324Z,97289.72
2022-09-02T19:32:06.358Z,97295.72
2022-09-02T19:34:35.060Z,97297.44
2022-09-02T19:37:01.640Z,97236.16
2022-09-02T19:39:28.177Z,97294.88
2022-09-02T19:41:54.794Z,97295.75
2022-09-02T19:44:21.347Z,97288.03
2022-09-02T19:47:37.649Z,97284.63
2022-09-02T19:49:36.385Z,97279.47
2022-09-02T19:52:03.029Z,97282.91
2022-09-02T19:54:29.574Z,97278.63
2022-09-02T19:56:56.091Z,97281.19
2022-09-02T19:59:22.786Z,97287.19
2022-09-02T20:01:50.158Z,97283.78
2022-09-02T20:04:16.786Z,97282.91
2022-09-02T20:06:43.303Z,97271.75
2022-09-02T20:09:09.887Z,97281.19
2022-09-02T20:11:41.176Z,97288.91
2022-09-02T20:14:07.845Z,97285.47
2022-09-02T20:16:34.479Z,97293.19
2022-09-02T20:19:01.107Z,97291.47
2022-09-02T20:21:30.215Z,97279.38
2022-09-02T20:24:04.037Z,97286.34
2022-09-02T20:26:43.008Z,97286.34
2022-09-02T20:29:28.247Z,97284.59
2022-09-02T20:32:03.984Z,97285.47
2022-09-02T20:34:56.011Z,97284.59
2022-09-02T20:37:22.412Z,97282.03
2022-09-02T20:40:07.709Z,97282.88
2022-09-02T20:43:08.896Z,97289.75
2022-09-02T20:45:38.320Z,97284.59
2022-09-02T20:48:15.291Z,97281.16
2022-09-02T20:51:06.448Z,97274.28
2022-09-02T20:54:01.160Z,97274.28
2022-09-02T20:56:40.062Z,97282.00
2022-09-02T20:59:10.596Z,97283.75
2022-09-02T21:01:38.996Z,97285.44
2022-09-02T21:04:24.332Z,97284.56
2022-09-02T21:07:01.162Z,97280.28
2022-09-02T21:09:45.936Z,97270.88
2022-09-02T21:12:43.075Z,97267.41
2022-09-02T21:15:12.628Z,97279.41
2022-09-02T21:17:45.265Z,97278.56
2022-09-02T21:20:29.690Z,97277.72
2022-09-02T21:22:57.850Z,97279.41
2022-09-02T21:25:25.944Z,97285.44
2022-09-02T21:28:09.596Z,96945.53
2022-09-02T21:30:41.037Z,97289.69
2022-09-02T21:33:13.040Z,97303.41
2022-09-02T21:35:49.855Z,97291.44
2022-09-02T21:38:37.120Z,97304.28
2022-09-02T21:41:25.752Z,97310.25
2022-09-02T21:43:58.313Z,97299.97
2022-09-02T21:46:27.597Z,97270.59
2022-09-02T21:49:00.229Z,97304.25
2022-09-02T21:51:34.232Z,97306.84
2022-09-02T21:54:20.001Z,97296.56
2022-09-02T21:57:29.013Z,97287.09
2022-09-02T22:00:00.379Z,97287.09
2022-09-02T22:02:50.168Z,97278.53
2022-09-02T22:05:44.232Z,97287.09
2022-09-02T22:08:29.700Z,97283.69
2022-09-02T22:11:32.559Z,97294.78
2022-09-02T22:14:02.376Z,97227.47
2022-09-02T22:17:00.212Z,97281.94
2022-09-02T22:19:30.225Z,97277.53
2022-09-02T22:22:01.661Z,97281.09
2022-09-02T22:24:28.904Z,97289.66
2022-09-02T22:27:04.825Z,97281.91
2022-09-02T22:30:08.385Z,97261.19
2022-09-02T22:32:38.537Z,97282.78
2022-09-02T22:35:24.773Z,97286.22
2022-09-02T22:38:13.098Z,97280.22
2022-09-02T22:40:42.253Z,97231.84
2022-09-02T22:43:11.441Z,97278.50
2022-09-02T22:46:20.888Z,97279.34
2022-09-02T22:49:11.923Z,97281.06
2022-09-02T22:52:21.817Z,97274.19
2022-09-02T22:54:48.675Z,97272.47
2022-09-02T22:57:46.353Z,97282.75
2022-09-02T23:00:13.628Z,97287.06
2022-09-02T23:02:49.212Z,97287.94
2022-09-02T23:05:42.038Z,97281.91
2022-09-02T23:08:08.799Z,97282.78
2022-09-02T23:10:37.593Z,97287.94
2022-09-02T23:13:16.464Z,97283.66
2022-09-02T23:15:49.216Z,97263.94
2022-09-02T23:18:29.487Z,97262.25
2022-09-02T23:21:01.558Z,97232.88
2022-09-02T23:23:47.824Z,97264.81
2022-09-02T23:26:19.893Z,97207.88
2022-09-02T23:28:55.516Z,97251.97
2022-09-02T23:31:40.453Z,97251.97
2022-09-02T23:34:13.611Z,97251.97
2022-09-02T23:37:07.120Z,97245.13
2022-09-02T23:40:01.628Z,97245.13
2022-09-02T23:42:29.483Z,97241.69
2022-09-02T23:45:00.652Z,97241.69
2022-09-02T23:48:00.441Z,97231.28
2022-09-02T23:50:57.770Z,97259.66
2022-09-02T23:53:34.156Z,97247.69
2022-09-02T23:56:42.115Z,97248.53
2022-09-02T23:59:09.116Z,97245.13
